sensor_id;sensor_type;location;lat;lon;timestamp;P1;durP1;ratioP1;P2;durP2;ratioP2
55186;SDS011;55457;52.002;5.464;2023-05-10T00:02:01;6.47;;;2.80;;
55186;SDS011;55457;52.002;5.464;2023-05-10T00:04:27;5.57;;;3.22;;
55186;SDS011;55457;52.002;5.464;2023-05-10T00:06:53;6.18;;;3.47;;
55186;SDS011;55457;52.002;5.464;2023-05-10T00:09:18;6.07;;;4.07;;
55186;SDS011;55457;52.002;5.464;2023-05-10T00:11:44;8.77;;;3.20;;
55186;SDS011;55457;52.002;5.464;2023-05-10T00:14:09;5.82;;;4.10;;
55186;SDS011;55457;52.002;5.464;2023-05-10T00:16:35;8.40;;;3.53;;
55186;SDS011;55457;52.002;5.464;2023-05-10T00:19:00;7.70;;;3.72;;
55186;SDS011;55457;52.002;5.464;2023-05-10T00:21:25;7.07;;;3.83;;
55186;SDS011;55457;52.002;5.464;2023-05-10T00:23:53;5.63;;;3.33;;
55186;SDS011;55457;52.002;5.464;2023-05-10T00:26:18;6.63;;;3.33;;
55186;SDS011;55457;52.002;5.464;2023-05-10T00:28:44;5.95;;;3.70;;
55186;SDS011;55457;52.002;5.464;2023-05-10T00:31:09;6.38;;;3.53;;
55186;SDS011;55457;52.002;5.464;2023-05-10T00:33:34;6.05;;;3.33;;
55186;SDS011;55457;52.002;5.464;2023-05-10T00:36:00;6.20;;;3.05;;
55186;SDS011;55457;52.002;5.464;2023-05-10T00:38:25;6.60;;;3.55;;
55186;SDS011;55457;52.002;5.464;2023-05-10T00:40:51;6.43;;;3.70;;
55186;SDS011;55457;52.002;5.464;2023-05-10T00:43:16;5.18;;;4.05;;
55186;SDS011;55457;52.002;5.464;2023-05-10T00:45:42;5.38;;;3.17;;
55186;SDS011;55457;52.002;5.464;2023-05-10T00:48:07;6.65;;;3.60;;
55186;SDS011;55457;52.002;5.464;2023-05-10T00:50:33;6.07;;;3.40;;
55186;SDS011;55457;52.002;5.464;2023-05-10T00:52:59;6.28;;;3.63;;
55186;SDS011;55457;52.002;5.464;2023-05-10T00:55:26;6.63;;;3.95;;
55186;SDS011;55457;52.002;5.464;2023-05-10T00:57:52;6.13;;;3.78;;
55186;SDS011;55457;52.002;5.464;2023-05-10T01:00:18;7.07;;;3.25;;
55186;SDS011;55457;52.002;5.464;2023-05-10T01:02:44;4.93;;;3.40;;
55186;SDS011;55457;52.002;5.464;2023-05-10T01:05:11;6.85;;;4.35;;
55186;SDS011;55457;52.002;5.464;2023-05-10T01:07:37;6.60;;;4.30;;
55186;SDS011;55457;52.002;5.464;2023-05-10T01:10:02;7.15;;;4.53;;
55186;SDS011;55457;52.002;5.464;2023-05-10T01:12:29;7.03;;;3.92;;
55186;SDS011;55457;52.002;5.464;2023-05-10T01:14:55;7.72;;;3.13;;
55186;SDS011;55457;52.002;5.464;2023-05-10T01:17:21;6.03;;;3.45;;
55186;SDS011;55457;52.002;5.464;2023-05-10T01:19:47;4.80;;;3.13;;
55186;SDS011;55457;52.002;5.464;2023-05-10T01:34:07;7.45;;;3.50;;
55186;SDS011;55457;52.002;5.464;2023-05-10T01:36:42;6.32;;;4.07;;
55186;SDS011;55457;52.002;5.464;2023-05-10T01:39:17;6.03;;;3.83;;
55186;SDS011;55457;52.002;5.464;2023-05-10T01:41:51;6.88;;;4.18;;
55186;SDS011;55457;52.002;5.464;2023-05-10T01:44:25;6.70;;;3.70;;
55186;SDS011;55457;52.002;5.464;2023-05-10T01:47:20;8.70;;;4.00;;
55186;SDS011;55457;52.002;5.464;2023-05-10T01:49:55;7.82;;;4.32;;
55186;SDS011;55457;52.002;5.464;2023-05-10T01:52:25;6.90;;;4.20;;
55186;SDS011;55457;52.002;5.464;2023-05-10T01:54:55;6.90;;;4.20;;
55186;SDS011;55457;52.002;5.464;2023-05-10T01:57:27;7.00;;;3.90;;
55186;SDS011;55457;52.002;5.464;2023-05-10T02:02:25;9.27;;;4.43;;
55186;SDS011;55457;52.002;5.464;2023-05-10T02:04:53;6.93;;;4.03;;
55186;SDS011;55457;52.002;5.464;2023-05-10T02:07:21;5.40;;;4.32;;
55186;SDS011;55457;52.002;5.464;2023-05-10T02:09:48;7.53;;;4.10;;
55186;SDS011;55457;52.002;5.464;2023-05-10T02:12:15;5.60;;;4.15;;
55186;SDS011;55457;52.002;5.464;2023-05-10T02:14:41;6.78;;;4.15;;
55186;SDS011;55457;52.002;5.464;2023-05-10T02:17:08;5.35;;;4.05;;
55186;SDS011;55457;52.002;5.464;2023-05-10T02:19:35;8.23;;;4.10;;
55186;SDS011;55457;52.002;5.464;2023-05-10T02:22:03;6.90;;;4.82;;
55186;SDS011;55457;52.002;5.464;2023-05-10T02:24:30;7.13;;;5.25;;
55186;SDS011;55457;52.002;5.464;2023-05-10T02:26:58;7.78;;;4.05;;
55186;SDS011;55457;52.002;5.464;2023-05-10T02:29:25;7.82;;;4.82;;
55186;SDS011;55457;52.002;5.464;2023-05-10T02:31:52;7.50;;;4.43;;
55186;SDS011;55457;52.002;5.464;2023-05-10T02:34:19;9.35;;;4.40;;
55186;SDS011;55457;52.002;5.464;2023-05-10T02:36:50;9.80;;;4.50;;
55186;SDS011;55457;52.002;5.464;2023-05-10T02:39:17;7.38;;;4.50;;
55186;SDS011;55457;52.002;5.464;2023-05-10T02:41:44;8.90;;;4.68;;
55186;SDS011;55457;52.002;5.464;2023-05-10T02:44:11;7.82;;;4.53;;
55186;SDS011;55457;52.002;5.464;2023-05-10T02:46:40;10.63;;;5.25;;
55186;SDS011;55457;52.002;5.464;2023-05-10T02:49:06;9.35;;;5.63;;
55186;SDS011;55457;52.002;5.464;2023-05-10T02:51:32;8.32;;;5.20;;
55186;SDS011;55457;52.002;5.464;2023-05-10T02:54:02;11.85;;;5.00;;
55186;SDS011;55457;52.002;5.464;2023-05-10T02:56:34;7.47;;;5.20;;
55186;SDS011;55457;52.002;5.464;2023-05-10T02:59:01;7.25;;;5.13;;
55186;SDS011;55457;52.002;5.464;2023-05-10T03:01:26;7.35;;;5.82;;
55186;SDS011;55457;52.002;5.464;2023-05-10T03:03:52;7.88;;;5.15;;
55186;SDS011;55457;52.002;5.464;2023-05-10T03:06:17;10.32;;;5.85;;
55186;SDS011;55457;52.002;5.464;2023-05-10T03:08:43;8.15;;;5.65;;
55186;SDS011;55457;52.002;5.464;2023-05-10T03:11:32;10.20;;;5.03;;
55186;SDS011;55457;52.002;5.464;2023-05-10T03:17:11;8.77;;;5.30;;
55186;SDS011;55457;52.002;5.464;2023-05-10T03:19:47;9.88;;;5.28;;
55186;SDS011;55457;52.002;5.464;2023-05-10T03:22:30;7.35;;;5.53;;
55186;SDS011;55457;52.002;5.464;2023-05-10T03:24:57;10.13;;;5.25;;
55186;SDS011;55457;52.002;5.464;2023-05-10T03:27:26;9.75;;;5.25;;
55186;SDS011;55457;52.002;5.464;2023-05-10T03:29:53;7.05;;;5.10;;
55186;SDS011;55457;52.002;5.464;2023-05-10T03:32:19;8.30;;;5.45;;
55186;SDS011;55457;52.002;5.464;2023-05-10T03:34:45;9.55;;;5.82;;
55186;SDS011;55457;52.002;5.464;2023-05-10T03:37:10;8.30;;;5.45;;
55186;SDS011;55457;52.002;5.464;2023-05-10T03:39:36;10.70;;;6.60;;
55186;SDS011;55457;52.002;5.464;2023-05-10T03:42:01;8.80;;;5.25;;
55186;SDS011;55457;52.002;5.464;2023-05-10T03:44:26;10.48;;;5.82;;
55186;SDS011;55457;52.002;5.464;2023-05-10T03:46:52;9.32;;;5.30;;
55186;SDS011;55457;52.002;5.464;2023-05-10T03:49:17;11.55;;;5.97;;
55186;SDS011;55457;52.002;5.464;2023-05-10T03:51:43;11.23;;;6.45;;
55186;SDS011;55457;52.002;5.464;2023-05-10T03:54:08;9.90;;;5.97;;
55186;SDS011;55457;52.002;5.464;2023-05-10T03:56:33;11.35;;;5.82;;
55186;SDS011;55457;52.002;5.464;2023-05-10T03:58:59;8.35;;;5.88;;
55186;SDS011;55457;52.002;5.464;2023-05-10T04:01:24;8.77;;;5.53;;
55186;SDS011;55457;52.002;5.464;2023-05-10T04:03:50;11.27;;;5.93;;
55186;SDS011;55457;52.002;5.464;2023-05-10T04:06:15;9.40;;;6.05;;
55186;SDS011;55457;52.002;5.464;2023-05-10T04:08:41;9.13;;;6.00;;
55186;SDS011;55457;52.002;5.464;2023-05-10T04:11:08;11.70;;;6.05;;
55186;SDS011;55457;52.002;5.464;2023-05-10T04:13:35;12.65;;;7.05;;
55186;SDS011;55457;52.002;5.464;2023-05-10T04:16:01;10.50;;;6.40;;
55186;SDS011;55457;52.002;5.464;2023-05-10T04:18:26;11.02;;;6.82;;
55186;SDS011;55457;52.002;5.464;2023-05-10T04:20:52;10.70;;;6.30;;
55186;SDS011;55457;52.002;5.464;2023-05-10T04:23:17;11.20;;;6.40;;
55186;SDS011;55457;52.002;5.464;2023-05-10T04:25:42;11.10;;;5.70;;
55186;SDS011;55457;52.002;5.464;2023-05-10T04:28:08;13.52;;;6.25;;
55186;SDS011;55457;52.002;5.464;2023-05-10T04:30:33;8.48;;;6.10;;
55186;SDS011;55457;52.002;5.464;2023-05-10T04:32:59;9.32;;;6.30;;
55186;SDS011;55457;52.002;5.464;2023-05-10T04:35:26;8.65;;;5.45;;
55186;SDS011;55457;52.002;5.464;2023-05-10T04:37:52;11.73;;;7.03;;
55186;SDS011;55457;52.002;5.464;2023-05-10T04:40:17;7.95;;;6.53;;
55186;SDS011;55457;52.002;5.464;2023-05-10T04:42:43;11.00;;;6.50;;
55186;SDS011;55457;52.002;5.464;2023-05-10T04:45:09;8.10;;;5.80;;
55186;SDS011;55457;52.002;5.464;2023-05-10T04:47:35;8.05;;;6.20;;
55186;SDS011;55457;52.002;5.464;2023-05-10T04:50:01;11.32;;;6.95;;
55186;SDS011;55457;52.002;5.464;2023-05-10T04:52:27;11.45;;;7.60;;
55186;SDS011;55457;52.002;5.464;2023-05-10T04:54:53;9.23;;;5.40;;
55186;SDS011;55457;52.002;5.464;2023-05-10T04:57:18;11.10;;;6.63;;
55186;SDS011;55457;52.002;5.464;2023-05-10T04:59:43;12.07;;;6.45;;
55186;SDS011;55457;52.002;5.464;2023-05-10T05:02:09;8.48;;;6.10;;
55186;SDS011;55457;52.002;5.464;2023-05-10T05:04:34;8.85;;;6.38;;
55186;SDS011;55457;52.002;5.464;2023-05-10T05:06:59;9.60;;;6.75;;
55186;SDS011;55457;52.002;5.464;2023-05-10T05:09:25;10.98;;;6.63;;
55186;SDS011;55457;52.002;5.464;2023-05-10T05:11:50;8.93;;;6.28;;
55186;SDS011;55457;52.002;5.464;2023-05-10T05:14:15;12.20;;;7.20;;
55186;SDS011;55457;52.002;5.464;2023-05-10T05:16:41;8.52;;;6.15;;
55186;SDS011;55457;52.002;5.464;2023-05-10T05:19:06;12.65;;;6.55;;
55186;SDS011;55457;52.002;5.464;2023-05-10T05:21:32;11.00;;;6.63;;
55186;SDS011;55457;52.002;5.464;2023-05-10T05:23:57;12.90;;;8.20;;
55186;SDS011;55457;52.002;5.464;2023-05-10T05:26:23;12.15;;;7.53;;
55186;SDS011;55457;52.002;5.464;2023-05-10T05:28:48;13.00;;;7.63;;
55186;SDS011;55457;52.002;5.464;2023-05-10T05:31:16;11.30;;;7.35;;
55186;SDS011;55457;52.002;5.464;2023-05-10T05:33:42;10.57;;;6.25;;
55186;SDS011;55457;52.002;5.464;2023-05-10T05:36:08;8.02;;;5.72;;
55186;SDS011;55457;52.002;5.464;2023-05-10T05:38:34;7.15;;;4.78;;
55186;SDS011;55457;52.002;5.464;2023-05-10T05:40:59;11.93;;;6.32;;
55186;SDS011;55457;52.002;5.464;2023-05-10T05:43:24;10.25;;;6.15;;
55186;SDS011;55457;52.002;5.464;2023-05-10T05:45:51;8.70;;;5.68;;
55186;SDS011;55457;52.002;5.464;2023-05-10T05:48:18;8.07;;;5.72;;
55186;SDS011;55457;52.002;5.464;2023-05-10T05:50:43;10.77;;;6.25;;
55186;SDS011;55457;52.002;5.464;2023-05-10T05:53:10;9.50;;;6.53;;
55186;SDS011;55457;52.002;5.464;2023-05-10T05:55:36;6.63;;;5.43;;
55186;SDS011;55457;52.002;5.464;2023-05-10T05:58:01;8.05;;;5.68;;
55186;SDS011;55457;52.002;5.464;2023-05-10T06:00:26;7.82;;;5.40;;
55186;SDS011;55457;52.002;5.464;2023-05-10T06:02:52;8.73;;;5.57;;
55186;SDS011;55457;52.002;5.464;2023-05-10T06:05:17;10.07;;;6.32;;
55186;SDS011;55457;52.002;5.464;2023-05-10T06:07:43;14.35;;;6.20;;
55186;SDS011;55457;52.002;5.464;2023-05-10T06:10:08;9.68;;;6.43;;
55186;SDS011;55457;52.002;5.464;2023-05-10T06:12:34;8.02;;;6.00;;
55186;SDS011;55457;52.002;5.464;2023-05-10T06:15:00;10.27;;;5.82;;
55186;SDS011;55457;52.002;5.464;2023-05-10T06:17:25;14.73;;;6.80;;
55186;SDS011;55457;52.002;5.464;2023-05-10T06:19:51;7.28;;;5.47;;
55186;SDS011;55457;52.002;5.464;2023-05-10T06:22:16;11.75;;;5.85;;
55186;SDS011;55457;52.002;5.464;2023-05-10T06:24:42;8.18;;;5.95;;
55186;SDS011;55457;52.002;5.464;2023-05-10T06:27:08;9.70;;;6.18;;
55186;SDS011;55457;52.002;5.464;2023-05-10T06:29:33;11.05;;;6.88;;
55186;SDS011;55457;52.002;5.464;2023-05-10T06:31:59;11.32;;;6.65;;
55186;SDS011;55457;52.002;5.464;2023-05-10T06:34:24;15.95;;;7.25;;
55186;SDS011;55457;52.002;5.464;2023-05-10T06:36:50;12.45;;;6.97;;
55186;SDS011;55457;52.002;5.464;2023-05-10T06:39:15;9.73;;;6.40;;
55186;SDS011;55457;52.002;5.464;2023-05-10T06:41:41;14.75;;;7.88;;
55186;SDS011;55457;52.002;5.464;2023-05-10T06:44:06;9.25;;;7.00;;
55186;SDS011;55457;52.002;5.464;2023-05-10T06:46:32;12.48;;;7.10;;
55186;SDS011;55457;52.002;5.464;2023-05-10T06:48:57;10.27;;;6.60;;
55186;SDS011;55457;52.002;5.464;2023-05-10T06:51:23;10.48;;;7.07;;
55186;SDS011;55457;52.002;5.464;2023-05-10T06:53:48;8.90;;;5.97;;
55186;SDS011;55457;52.002;5.464;2023-05-10T06:56:13;10.55;;;7.65;;
55186;SDS011;55457;52.002;5.464;2023-05-10T06:58:39;10.45;;;6.93;;
55186;SDS011;55457;52.002;5.464;2023-05-10T07:01:04;11.43;;;7.93;;
55186;SDS011;55457;52.002;5.464;2023-05-10T07:03:30;10.40;;;7.65;;
55186;SDS011;55457;52.002;5.464;2023-05-10T07:06:02;12.88;;;7.35;;
55186;SDS011;55457;52.002;5.464;2023-05-10T07:08:29;10.80;;;7.28;;
55186;SDS011;55457;52.002;5.464;2023-05-10T07:11:05;11.75;;;7.20;;
55186;SDS011;55457;52.002;5.464;2023-05-10T07:13:35;11.60;;;7.03;;
55186;SDS011;55457;52.002;5.464;2023-05-10T07:16:01;8.50;;;6.82;;
55186;SDS011;55457;52.002;5.464;2023-05-10T07:18:27;9.20;;;6.68;;
55186;SDS011;55457;52.002;5.464;2023-05-10T07:20:53;11.70;;;7.13;;
55186;SDS011;55457;52.002;5.464;2023-05-10T07:23:19;10.50;;;7.40;;
55186;SDS011;55457;52.002;5.464;2023-05-10T07:25:48;12.32;;;7.53;;
55186;SDS011;55457;52.002;5.464;2023-05-10T07:28:17;10.23;;;7.10;;
55186;SDS011;55457;52.002;5.464;2023-05-10T07:30:42;10.82;;;6.97;;
55186;SDS011;55457;52.002;5.464;2023-05-10T07:33:08;10.15;;;6.55;;
55186;SDS011;55457;52.002;5.464;2023-05-10T07:35:35;9.43;;;6.60;;
55186;SDS011;55457;52.002;5.464;2023-05-10T07:38:01;10.25;;;7.45;;
55186;SDS011;55457;52.002;5.464;2023-05-10T07:40:27;9.60;;;6.78;;
55186;SDS011;55457;52.002;5.464;2023-05-10T07:42:52;11.57;;;6.75;;
55186;SDS011;55457;52.002;5.464;2023-05-10T07:45:18;9.02;;;6.63;;
55186;SDS011;55457;52.002;5.464;2023-05-10T07:47:43;13.45;;;6.85;;
55186;SDS011;55457;52.002;5.464;2023-05-10T07:50:09;12.70;;;6.50;;
55186;SDS011;55457;52.002;5.464;2023-05-10T07:52:34;9.05;;;6.70;;
55186;SDS011;55457;52.002;5.464;2023-05-10T07:54:59;11.68;;;6.18;;
55186;SDS011;55457;52.002;5.464;2023-05-10T07:57:25;14.95;;;5.85;;
55186;SDS011;55457;52.002;5.464;2023-05-10T07:59:50;10.95;;;6.20;;
55186;SDS011;55457;52.002;5.464;2023-05-10T08:02:16;12.32;;;7.05;;
55186;SDS011;55457;52.002;5.464;2023-05-10T08:04:41;10.52;;;6.45;;
55186;SDS011;55457;52.002;5.464;2023-05-10T08:07:06;9.60;;;6.80;;
55186;SDS011;55457;52.002;5.464;2023-05-10T08:09:32;10.60;;;6.40;;
55186;SDS011;55457;52.002;5.464;2023-05-10T08:11:57;10.55;;;7.28;;
55186;SDS011;55457;52.002;5.464;2023-05-10T08:14:24;12.55;;;7.43;;
55186;SDS011;55457;52.002;5.464;2023-05-10T08:16:49;9.65;;;6.90;;
55186;SDS011;55457;52.002;5.464;2023-05-10T08:19:15;8.60;;;6.90;;
55186;SDS011;55457;52.002;5.464;2023-05-10T08:21:43;11.38;;;7.05;;
55186;SDS011;55457;52.002;5.464;2023-05-10T08:24:09;14.90;;;6.40;;
55186;SDS011;55457;52.002;5.464;2023-05-10T08:26:34;8.32;;;6.55;;
55186;SDS011;55457;52.002;5.464;2023-05-10T08:29:00;11.32;;;6.55;;
55186;SDS011;55457;52.002;5.464;2023-05-10T08:31:25;9.10;;;6.68;;
55186;SDS011;55457;52.002;5.464;2023-05-10T08:33:51;11.40;;;7.38;;
55186;SDS011;55457;52.002;5.464;2023-05-10T08:36:17;10.40;;;6.53;;
55186;SDS011;55457;52.002;5.464;2023-05-10T08:38:46;9.32;;;6.63;;
55186;SDS011;55457;52.002;5.464;2023-05-10T08:41:19;7.65;;;5.88;;
55186;SDS011;55457;52.002;5.464;2023-05-10T08:43:46;8.55;;;6.35;;
55186;SDS011;55457;52.002;5.464;2023-05-10T08:46:13;7.07;;;5.82;;
55186;SDS011;55457;52.002;5.464;2023-05-10T08:48:41;12.52;;;6.40;;
55186;SDS011;55457;52.002;5.464;2023-05-10T08:51:09;10.63;;;7.18;;
55186;SDS011;55457;52.002;5.464;2023-05-10T08:53:37;9.32;;;6.55;;
55186;SDS011;55457;52.002;5.464;2023-05-10T08:56:03;8.88;;;6.32;;
55186;SDS011;55457;52.002;5.464;2023-05-10T08:58:29;10.95;;;6.78;;
55186;SDS011;55457;52.002;5.464;2023-05-10T09:00:54;10.02;;;6.03;;
55186;SDS011;55457;52.002;5.464;2023-05-10T09:03:22;11.90;;;6.45;;
55186;SDS011;55457;52.002;5.464;2023-05-10T09:05:50;8.90;;;6.80;;
55186;SDS011;55457;52.002;5.464;2023-05-10T09:08:16;9.73;;;5.85;;
55186;SDS011;55457;52.002;5.464;2023-05-10T09:10:42;9.27;;;6.95;;
55186;SDS011;55457;52.002;5.464;2023-05-10T09:13:09;9.70;;;5.63;;
55186;SDS011;55457;52.002;5.464;2023-05-10T09:15:36;10.80;;;7.97;;
55186;SDS011;55457;52.002;5.464;2023-05-10T09:18:02;9.90;;;6.63;;
55186;SDS011;55457;52.002;5.464;2023-05-10T09:20:27;14.95;;;6.68;;
55186;SDS011;55457;52.002;5.464;2023-05-10T09:22:53;10.90;;;7.40;;
55186;SDS011;55457;52.002;5.464;2023-05-10T09:25:19;12.80;;;6.78;;
55186;SDS011;55457;52.002;5.464;2023-05-10T09:27:45;15.00;;;7.47;;
55186;SDS011;55457;52.002;5.464;2023-05-10T09:30:15;9.32;;;6.20;;
55186;SDS011;55457;52.002;5.464;2023-05-10T09:32:43;9.30;;;6.28;;
55186;SDS011;55457;52.002;5.464;2023-05-10T09:35:14;11.18;;;6.95;;
55186;SDS011;55457;52.002;5.464;2023-05-10T09:37:44;10.68;;;6.18;;
55186;SDS011;55457;52.002;5.464;2023-05-10T09:40:13;11.45;;;6.68;;
55186;SDS011;55457;52.002;5.464;2023-05-10T09:42:40;8.77;;;6.53;;
55186;SDS011;55457;52.002;5.464;2023-05-10T09:45:07;10.60;;;6.28;;
55186;SDS011;55457;52.002;5.464;2023-05-10T09:47:36;8.50;;;5.93;;
55186;SDS011;55457;52.002;5.464;2023-05-10T09:50:02;9.05;;;5.88;;
55186;SDS011;55457;52.002;5.464;2023-05-10T09:52:50;8.35;;;4.95;;
55186;SDS011;55457;52.002;5.464;2023-05-10T09:55:22;7.88;;;4.40;;
55186;SDS011;55457;52.002;5.464;2023-05-10T09:57:49;7.28;;;4.32;;
55186;SDS011;55457;52.002;5.464;2023-05-10T10:00:23;7.47;;;4.43;;
55186;SDS011;55457;52.002;5.464;2023-05-10T10:02:55;7.05;;;3.85;;
55186;SDS011;55457;52.002;5.464;2023-05-10T10:07:55;6.60;;;4.20;;
55186;SDS011;55457;52.002;5.464;2023-05-10T10:10:22;9.43;;;4.20;;
55186;SDS011;55457;52.002;5.464;2023-05-10T10:12:48;6.40;;;3.75;;
55186;SDS011;55457;52.002;5.464;2023-05-10T10:15:14;7.03;;;4.32;;
55186;SDS011;55457;52.002;5.464;2023-05-10T10:17:40;6.72;;;4.13;;
55186;SDS011;55457;52.002;5.464;2023-05-10T10:20:08;6.78;;;3.97;;
55186;SDS011;55457;52.002;5.464;2023-05-10T10:22:34;6.32;;;3.95;;
55186;SDS011;55457;52.002;5.464;2023-05-10T10:25:01;5.13;;;4.20;;
55186;SDS011;55457;52.002;5.464;2023-05-10T10:35:29;6.88;;;4.57;;
55186;SDS011;55457;52.002;5.464;2023-05-10T10:37:56;5.15;;;3.67;;
55186;SDS011;55457;52.002;5.464;2023-05-10T10:40:32;7.35;;;4.43;;
55186;SDS011;55457;52.002;5.464;2023-05-10T10:42:59;4.43;;;3.47;;
55186;SDS011;55457;52.002;5.464;2023-05-10T10:48:48;7.33;;;4.23;;
55186;SDS011;55457;52.002;5.464;2023-05-10T10:51:16;4.90;;;4.00;;
55186;SDS011;55457;52.002;5.464;2023-05-10T10:53:42;6.25;;;4.00;;
55186;SDS011;55457;52.002;5.464;2023-05-10T10:56:09;6.05;;;3.85;;
55186;SDS011;55457;52.002;5.464;2023-05-10T10:58:39;6.82;;;4.40;;
55186;SDS011;55457;52.002;5.464;2023-05-10T11:01:09;6.43;;;4.40;;
55186;SDS011;55457;52.002;5.464;2023-05-10T11:03:36;4.70;;;3.58;;
55186;SDS011;55457;52.002;5.464;2023-05-10T11:06:01;8.85;;;4.57;;
55186;SDS011;55457;52.002;5.464;2023-05-10T11:08:31;5.15;;;3.80;;
55186;SDS011;55457;52.002;5.464;2023-05-10T11:15:59;6.88;;;4.45;;
55186;SDS011;55457;52.002;5.464;2023-05-10T11:18:36;5.15;;;3.65;;
55186;SDS011;55457;52.002;5.464;2023-05-10T11:21:01;6.05;;;3.85;;
55186;SDS011;55457;52.002;5.464;2023-05-10T11:23:47;6.57;;;4.80;;
55186;SDS011;55457;52.002;5.464;2023-05-10T11:26:16;6.75;;;4.25;;
55186;SDS011;55457;52.002;5.464;2023-05-10T11:28:43;5.63;;;4.03;;
55186;SDS011;55457;52.002;5.464;2023-05-10T11:31:09;5.78;;;4.00;;
55186;SDS011;55457;52.002;5.464;2023-05-10T11:36:18;6.38;;;4.07;;
55186;SDS011;55457;52.002;5.464;2023-05-10T11:38:46;6.32;;;4.45;;
55186;SDS011;55457;52.002;5.464;2023-05-10T11:41:13;7.70;;;4.60;;
55186;SDS011;55457;52.002;5.464;2023-05-10T11:43:39;7.80;;;4.88;;
55186;SDS011;55457;52.002;5.464;2023-05-10T11:46:08;6.78;;;4.32;;
55186;SDS011;55457;52.002;5.464;2023-05-10T11:48:36;7.25;;;4.40;;
55186;SDS011;55457;52.002;5.464;2023-05-10T11:51:03;6.75;;;4.30;;
55186;SDS011;55457;52.002;5.464;2023-05-10T11:53:31;6.22;;;4.28;;
55186;SDS011;55457;52.002;5.464;2023-05-10T11:56:10;7.88;;;4.50;;
55186;SDS011;55457;52.002;5.464;2023-05-10T11:58:36;5.35;;;3.80;;
55186;SDS011;55457;52.002;5.464;2023-05-10T12:01:03;5.72;;;3.97;;
55186;SDS011;55457;52.002;5.464;2023-05-10T12:03:30;6.63;;;3.92;;
55186;SDS011;55457;52.002;5.464;2023-05-10T12:05:56;5.40;;;3.42;;
55186;SDS011;55457;52.002;5.464;2023-05-10T12:08:23;5.70;;;3.50;;
55186;SDS011;55457;52.002;5.464;2023-05-10T12:10:50;6.25;;;3.83;;
55186;SDS011;55457;52.002;5.464;2023-05-10T12:13:16;5.20;;;3.80;;
55186;SDS011;55457;52.002;5.464;2023-05-10T12:15:42;6.22;;;4.35;;
55186;SDS011;55457;52.002;5.464;2023-05-10T12:18:11;4.57;;;3.92;;
55186;SDS011;55457;52.002;5.464;2023-05-10T12:20:37;5.07;;;3.90;;
55186;SDS011;55457;52.002;5.464;2023-05-10T12:23:03;7.38;;;3.90;;
55186;SDS011;55457;52.002;5.464;2023-05-10T12:25:31;5.10;;;3.55;;
55186;SDS011;55457;52.002;5.464;2023-05-10T12:27:58;6.90;;;4.20;;
55186;SDS011;55457;52.002;5.464;2023-05-10T12:30:29;7.50;;;4.28;;
55186;SDS011;55457;52.002;5.464;2023-05-10T12:33:00;7.47;;;4.00;;
55186;SDS011;55457;52.002;5.464;2023-05-10T12:35:29;6.10;;;3.95;;
55186;SDS011;55457;52.002;5.464;2023-05-10T12:37:55;7.93;;;4.25;;
55186;SDS011;55457;52.002;5.464;2023-05-10T12:40:20;6.35;;;3.92;;
55186;SDS011;55457;52.002;5.464;2023-05-10T12:42:46;8.32;;;4.30;;
55186;SDS011;55457;52.002;5.464;2023-05-10T12:45:11;8.32;;;3.92;;
55186;SDS011;55457;52.002;5.464;2023-05-10T12:47:37;7.82;;;3.97;;
55186;SDS011;55457;52.002;5.464;2023-05-10T12:50:03;5.93;;;3.97;;
55186;SDS011;55457;52.002;5.464;2023-05-10T12:52:29;6.32;;;4.20;;
55186;SDS011;55457;52.002;5.464;2023-05-10T12:54:57;5.53;;;4.05;;
55186;SDS011;55457;52.002;5.464;2023-05-10T12:57:22;5.93;;;3.40;;
55186;SDS011;55457;52.002;5.464;2023-05-10T12:59:48;4.70;;;4.03;;
55186;SDS011;55457;52.002;5.464;2023-05-10T13:02:15;7.28;;;4.13;;
55186;SDS011;55457;52.002;5.464;2023-05-10T13:04:42;10.27;;;3.78;;
55186;SDS011;55457;52.002;5.464;2023-05-10T13:07:08;7.15;;;3.65;;
55186;SDS011;55457;52.002;5.464;2023-05-10T13:09:34;7.55;;;4.18;;
55186;SDS011;55457;52.002;5.464;2023-05-10T13:12:00;4.90;;;3.78;;
55186;SDS011;55457;52.002;5.464;2023-05-10T13:14:25;8.25;;;4.07;;
55186;SDS011;55457;52.002;5.464;2023-05-10T13:16:51;9.05;;;4.03;;
55186;SDS011;55457;52.002;5.464;2023-05-10T13:19:16;8.85;;;4.03;;
55186;SDS011;55457;52.002;5.464;2023-05-10T13:21:43;8.13;;;4.07;;
55186;SDS011;55457;52.002;5.464;2023-05-10T13:24:09;9.20;;;4.72;;
55186;SDS011;55457;52.002;5.464;2023-05-10T13:26:35;5.80;;;3.65;;
55186;SDS011;55457;52.002;5.464;2023-05-10T13:29:01;4.50;;;3.45;;
55186;SDS011;55457;52.002;5.464;2023-05-10T13:31:27;8.27;;;3.95;;
55186;SDS011;55457;52.002;5.464;2023-05-10T13:33:52;6.10;;;4.00;;
55186;SDS011;55457;52.002;5.464;2023-05-10T13:36:18;6.18;;;3.85;;
55186;SDS011;55457;52.002;5.464;2023-05-10T13:38:43;6.25;;;3.80;;
55186;SDS011;55457;52.002;5.464;2023-05-10T13:41:09;5.97;;;3.70;;
55186;SDS011;55457;52.002;5.464;2023-05-10T13:43:34;8.98;;;3.75;;
55186;SDS011;55457;52.002;5.464;2023-05-10T13:46:01;5.55;;;3.50;;
55186;SDS011;55457;52.002;5.464;2023-05-10T13:48:26;6.15;;;3.42;;
55186;SDS011;55457;52.002;5.464;2023-05-10T13:50:52;6.85;;;4.00;;
55186;SDS011;55457;52.002;5.464;2023-05-10T13:53:17;7.07;;;3.65;;
55186;SDS011;55457;52.002;5.464;2023-05-10T13:55:42;5.60;;;3.45;;
55186;SDS011;55457;52.002;5.464;2023-05-10T13:58:08;5.50;;;3.47;;
55186;SDS011;55457;52.002;5.464;2023-05-10T14:00:33;4.90;;;3.83;;
55186;SDS011;55457;52.002;5.464;2023-05-10T14:02:58;8.98;;;4.53;;
55186;SDS011;55457;52.002;5.464;2023-05-10T14:05:24;5.50;;;3.40;;
55186;SDS011;55457;52.002;5.464;2023-05-10T14:07:49;6.70;;;4.13;;
55186;SDS011;55457;52.002;5.464;2023-05-10T14:10:15;6.25;;;3.50;;
55186;SDS011;55457;52.002;5.464;2023-05-10T14:12:41;4.88;;;3.28;;
55186;SDS011;55457;52.002;5.464;2023-05-10T14:15:06;7.13;;;3.88;;
55186;SDS011;55457;52.002;5.464;2023-05-10T14:17:32;6.72;;;4.03;;
55186;SDS011;55457;52.002;5.464;2023-05-10T14:19:58;4.93;;;3.72;;
55186;SDS011;55457;52.002;5.464;2023-05-10T14:22:23;7.85;;;4.30;;
55186;SDS011;55457;52.002;5.464;2023-05-10T14:24:49;5.32;;;4.00;;
55186;SDS011;55457;52.002;5.464;2023-05-10T14:27:15;5.65;;;3.70;;
55186;SDS011;55457;52.002;5.464;2023-05-10T14:29:41;6.78;;;3.90;;
55186;SDS011;55457;52.002;5.464;2023-05-10T14:32:06;5.00;;;3.80;;
55186;SDS011;55457;52.002;5.464;2023-05-10T14:34:32;5.40;;;3.95;;
55186;SDS011;55457;52.002;5.464;2023-05-10T14:36:57;6.75;;;3.13;;
55186;SDS011;55457;52.002;5.464;2023-05-10T14:39:23;5.50;;;3.17;;
55186;SDS011;55457;52.002;5.464;2023-05-10T14:41:48;5.65;;;3.75;;
55186;SDS011;55457;52.002;5.464;2023-05-10T14:44:14;6.80;;;3.53;;
55186;SDS011;55457;52.002;5.464;2023-05-10T14:46:40;6.63;;;3.72;;
55186;SDS011;55457;52.002;5.464;2023-05-10T14:49:06;5.45;;;4.25;;
55186;SDS011;55457;52.002;5.464;2023-05-10T14:51:32;5.60;;;3.72;;
55186;SDS011;55457;52.002;5.464;2023-05-10T14:53:57;6.32;;;3.83;;
55186;SDS011;55457;52.002;5.464;2023-05-10T14:56:22;6.55;;;3.60;;
55186;SDS011;55457;52.002;5.464;2023-05-10T14:58:49;4.85;;;3.95;;
55186;SDS011;55457;52.002;5.464;2023-05-10T15:01:14;6.32;;;3.15;;
55186;SDS011;55457;52.002;5.464;2023-05-10T15:03:40;5.95;;;3.95;;
55186;SDS011;55457;52.002;5.464;2023-05-10T15:06:05;7.68;;;4.18;;
55186;SDS011;55457;52.002;5.464;2023-05-10T15:08:33;4.88;;;3.35;;
55186;SDS011;55457;52.002;5.464;2023-05-10T15:10:58;7.50;;;4.43;;
55186;SDS011;55457;52.002;5.464;2023-05-10T15:13:24;5.72;;;3.42;;
55186;SDS011;55457;52.002;5.464;2023-05-10T15:15:49;5.55;;;3.60;;
55186;SDS011;55457;52.002;5.464;2023-05-10T15:18:14;6.35;;;3.33;;
55186;SDS011;55457;52.002;5.464;2023-05-10T15:20:40;7.28;;;3.83;;